Vancleave, Mississippi
Current Conditions -  °F | °C
As of 2:58 PM on Thursday 23 Oct 2014 (Local Time) from KBIX Reporting Station
Clear Clear  
Wind Chill: 74°   Ceiling: Unl
Heat Index: 74°   Visibility: 10mi
Dew Point: 44°   Wind: 5mph
Humidity: 34%   Direction: 30°NNE
Pressure: 30.04"   Gusts: NA
Location:  30.5758°N, 88.7489°W
Report Text: KBIX 231958Z AUTO 03004KT 10SM CLR 24/07 A3004 RMK AO2 SLP175 T02360068
Loading
Personal Weather Stations






























Interactive Weather Map
Tropical Storm Tracking
New forecast layout! Learn more

10-Day Weather Forecast

Advertisements
Track Severe Weather on mobile